Time;durP1;ratioP1;P1;durP2;ratioP2;P2;SDS_P1;SDS_P2;PMS_P1;PMS_P2;Temp;Humidity;BMP_temperature;BMP_pressure;BME280_temperature;BME280_humidity;BME280_pressure;Samples;Min_cycle;Max_cycle;Signal;HPM_P1;HPM_P2
2022/04/07 00:02:00;;;;;;;6.47;4.47;;;;;;;8.80;99.10;98363.72;4994367;28;20238;-62
2022/04/07 00:04:26;;;;;;;4.77;4.33;;;;;;;8.74;99.63;98367.53;4990751;28;20223;-62
2022/04/07 00:06:51;;;;;;;4.77;4.33;;;;;;;8.77;99.95;98362.22;4992521;28;20182;-62
2022/04/07 00:09:16;;;;;;;8.07;4.57;;;;;;;8.83;99.59;98364.31;4991093;28;20189;-62
2022/04/07 00:11:42;;;;;;;6.77;4.80;;;;;;;8.87;99.12;98357.22;4970899;28;20231;-62
2022/04/07 00:14:07;;;;;;;5.43;4.23;;;;;;;8.93;97.74;98358.47;4988070;28;20180;-63
2022/04/07 00:16:33;;;;;;;5.80;4.33;;;;;;;8.79;97.56;98354.41;4991132;28;20171;-64
2022/04/07 00:18:59;;;;;;;6.00;5.07;;;;;;;8.77;97.96;98349.38;4991819;28;20195;-64
2022/04/07 00:21:25;;;;;;;5.80;4.53;;;;;;;8.68;98.60;98343.22;4983140;28;20310;-64
2022/04/07 00:23:53;;;;;;;6.67;4.70;;;;;;;8.61;98.98;98333.50;4997239;28;20207;-64
2022/04/07 00:26:19;;;;;;;5.63;5.00;;;;;;;8.63;99.43;98337.59;4992214;28;20202;-63
2022/04/07 00:28:45;;;;;;;5.93;5.33;;;;;;;8.58;99.60;98333.75;4992390;28;20183;-63
2022/04/07 00:31:11;;;;;;;5.07;4.57;;;;;;;8.54;99.85;98330.59;4990860;28;20234;-62
2022/04/07 00:33:37;;;;;;;5.83;4.83;;;;;;;8.61;99.61;98336.91;4990858;28;20274;-62
2022/04/07 00:36:04;;;;;;;5.13;4.50;;;;;;;8.64;99.11;98328.97;4992272;28;20562;-62
2022/04/07 00:38:30;;;;;;;6.47;4.70;;;;;;;8.66;98.97;98331.44;4989392;28;20271;-63
2022/04/07 00:40:55;;;;;;;5.60;4.70;;;;;;;8.66;98.94;98329.69;4969315;28;20310;-63
2022/04/07 00:43:29;;;;;;;5.50;4.93;;;;;;;8.69;99.13;98324.31;4969897;28;20195;-63
2022/04/07 00:45:54;;;;;;;4.63;3.83;;;;;;;8.73;99.09;98319.78;4971378;28;20184;-64
2022/04/07 00:48:19;;;;;;;4.60;4.20;;;;;;;8.72;98.85;98318.97;4972549;28;20542;-63
2022/04/07 00:50:45;;;;;;;5.20;4.67;;;;;;;8.76;99.36;98314.44;4970693;28;20802;-63
2022/04/07 00:53:11;;;;;;;5.33;4.83;;;;;;;8.77;99.38;98303.25;4974698;28;20214;-63
2022/04/07 00:55:37;;;;;;;5.87;5.07;;;;;;;8.88;99.00;98300.69;4974161;28;20195;-63
2022/04/07 00:58:03;;;;;;;5.50;4.90;;;;;;;8.99;98.09;98297.28;4974756;28;20188;-63
2022/04/07 01:00:30;;;;;;;6.03;5.23;;;;;;;9.08;98.36;98306.03;4969159;28;20768;-63
2022/04/07 01:02:55;;;;;;;5.37;4.83;;;;;;;9.11;98.12;98292.16;4987361;28;20227;-63
2022/04/07 01:05:23;;;;;;;5.40;4.73;;;;;;;9.18;97.36;98298.44;4974627;28;20180;-63
2022/04/07 01:07:49;;;;;;;5.93;4.67;;;;;;;9.22;97.88;98288.75;4976089;28;20222;-64
2022/04/07 01:10:16;;;;;;;6.63;4.37;;;;;;;9.24;99.21;98280.00;4967367;28;20247;-64
2022/04/07 01:12:41;;;;;;;4.40;4.00;;;;;;;9.18;100.00;98278.72;4989095;28;20172;-63
2022/04/07 01:15:07;;;;;;;9.53;4.23;;;;;;;9.00;100.00;98265.56;4975667;28;20188;-64
2022/04/07 01:17:34;;;;;;;5.90;4.03;;;;;;;8.92;100.00;98267.91;4975729;28;20183;-64
2022/04/07 01:20:01;;;;;;;4.83;4.07;;;;;;;9.06;100.00;98266.84;4974199;28;20243;-64
2022/04/07 01:22:26;;;;;;;4.90;4.40;;;;;;;9.10;100.00;98263.09;4964314;28;20228;-65
2022/04/07 01:24:51;;;;;;;4.67;4.27;;;;;;;9.13;100.00;98256.91;4973864;28;20207;-65
2022/04/07 01:27:18;;;;;;;5.17;3.57;;;;;;;9.08;100.00;98259.03;4974798;28;20696;-63
2022/04/07 01:29:44;;;;;;;3.97;3.57;;;;;;;9.18;100.00;98259.97;4960944;28;20204;-63
2022/04/07 01:32:34;;;;;;;4.47;3.67;;;;;;;9.15;100.00;98250.75;4960735;28;20326;-64
2022/04/07 01:34:59;;;;;;;5.70;3.63;;;;;;;9.32;100.00;98249.41;4954115;28;20191;-64
2022/04/07 01:37:25;;;;;;;4.93;3.40;;;;;;;9.32;100.00;98257.09;4968607;28;20535;-64
2022/04/07 01:39:51;;;;;;;4.73;3.70;;;;;;;9.33;100.00;98245.91;4974000;28;20212;-64
2022/04/07 01:42:17;;;;;;;3.50;3.20;;;;;;;9.18;100.00;98237.69;4965201;28;20282;-64
2022/04/07 01:44:48;;;;;;;3.90;3.30;;;;;;;9.24;100.00;98240.69;4973223;28;20203;-65
2022/04/07 01:47:19;;;;;;;4.80;3.20;;;;;;;9.26;100.00;98239.63;4972404;28;20175;-64
2022/04/07 01:49:46;;;;;;;3.53;2.80;;;;;;;9.26;100.00;98238.81;4973547;28;20608;-65
2022/04/07 01:52:12;;;;;;;4.87;2.80;;;;;;;9.30;100.00;98229.94;4979938;28;20840;-64
2022/04/07 01:54:42;;;;;;;3.97;3.00;;;;;;;9.16;100.00;98234.41;4972945;28;20187;-64
2022/04/07 01:57:07;;;;;;;4.20;3.20;;;;;;;9.27;100.00;98243.03;4973383;28;20204;-64
2022/04/07 01:59:33;;;;;;;3.40;3.10;;;;;;;9.13;100.00;98232.09;4974705;28;20290;-64
2022/04/07 02:01:58;;;;;;;3.27;2.70;;;;;;;9.08;100.00;98235.94;4981394;28;20721;-64
2022/04/07 02:04:23;;;;;;;3.00;2.80;;;;;;;9.03;100.00;98228.63;4972962;28;20227;-64
2022/04/07 02:06:49;;;;;;;3.13;2.80;;;;;;;8.85;100.00;98231.66;4974789;28;20188;-63
2022/04/07 02:09:14;;;;;;;2.97;2.67;;;;;;;8.81;100.00;98221.78;4974467;28;20709;-64
2022/04/07 02:11:41;;;;;;;4.37;3.17;;;;;;;8.63;100.00;98227.38;4982518;28;20231;-63
2022/04/07 02:14:06;;;;;;;3.70;2.93;;;;;;;8.54;100.00;98222.97;4976694;28;20176;-62
2022/04/07 02:16:31;;;;;;;4.03;3.50;;;;;;;8.49;100.00;98220.75;4989296;28;20198;-63
2022/04/07 02:18:57;;;;;;;4.00;3.47;;;;;;;8.40;100.00;98213.75;4989085;28;20227;-63
2022/04/07 02:21:22;;;;;;;4.40;2.80;;;;;;;8.24;100.00;98217.44;4982223;28;20230;-63
2022/04/07 02:23:48;;;;;;;6.30;3.20;;;;;;;8.26;100.00;98212.22;4972447;28;20313;-63
2022/04/07 02:26:15;;;;;;;4.03;3.70;;;;;;;8.29;100.00;98206.06;4974127;28;20179;-64
2022/04/07 02:28:41;;;;;;;4.77;3.80;;;;;;;8.31;100.00;98206.72;4972923;28;20207;-64
2022/04/07 02:31:07;;;;;;;5.37;3.83;;;;;;;8.34;100.00;98206.50;4965830;28;20288;-64
2022/04/07 02:33:34;;;;;;;4.03;3.63;;;;;;;8.41;100.00;98200.00;4972051;28;20201;-63
2022/04/07 02:36:03;;;;;;;5.27;3.60;;;;;;;8.36;100.00;98207.19;4973904;28;20191;-63
2022/04/07 02:38:28;;;;;;;4.43;3.80;;;;;;;8.28;100.00;98189.84;4972950;28;20671;-63
2022/04/07 02:40:54;;;;;;;4.73;3.77;;;;;;;8.26;100.00;98196.84;4970649;28;20234;-63
2022/04/07 02:43:19;;;;;;;5.20;3.13;;;;;;;8.18;100.00;98197.41;4981974;28;20179;-63
2022/04/07 02:45:44;;;;;;;4.20;3.80;;;;;;;8.12;100.00;98187.63;4988666;28;20190;-64
2022/04/07 02:48:10;;;;;;;4.07;3.77;;;;;;;8.06;100.00;98172.72;4973489;28;20230;-64
2022/04/07 02:50:35;;;;;;;4.40;3.87;;;;;;;8.13;100.00;98173.91;4965438;28;20333;-64
2022/04/07 02:53:00;;;;;;;3.70;3.40;;;;;;;8.05;100.00;98171.91;4983881;28;20187;-64
2022/04/07 02:55:27;;;;;;;6.57;4.13;;;;;;;8.07;100.00;98162.38;4972386;28;20681;-64
2022/04/07 02:57:52;;;;;;;4.60;4.20;;;;;;;8.17;100.00;98156.56;4973567;28;20258;-64
2022/04/07 03:00:18;;;;;;;4.27;3.97;;;;;;;8.04;100.00;98147.25;4953447;28;20306;-63
2022/04/07 03:02:43;;;;;;;5.30;3.77;;;;;;;8.08;100.00;98142.69;4957738;28;20267;-64
2022/04/07 03:05:09;;;;;;;3.90;3.60;;;;;;;8.10;100.00;98145.13;4973331;28;20627;-63
2022/04/07 03:07:35;;;;;;;3.70;3.40;;;;;;;8.06;100.00;98142.00;4988432;28;20222;-63
2022/04/07 03:10:01;;;;;;;3.83;3.53;;;;;;;8.07;100.00;98144.47;4971958;28;20211;-63
2022/04/07 03:12:26;;;;;;;4.03;3.60;;;;;;;8.13;100.00;98134.69;4978262;28;20338;-63
2022/04/07 03:14:52;;;;;;;4.80;3.80;;;;;;;8.22;100.00;98141.66;4972883;28;20202;-64
2022/04/07 03:17:17;;;;;;;4.00;3.70;;;;;;;8.28;100.00;98142.94;4979148;28;20237;-64
2022/04/07 03:19:43;;;;;;;4.30;3.30;;;;;;;8.28;100.00;98133.50;4973115;28;20207;-63
2022/04/07 03:22:08;;;;;;;3.67;3.37;;;;;;;8.34;100.00;98133.03;4980230;28;20631;-63
2022/04/07 03:24:34;;;;;;;3.73;3.23;;;;;;;8.23;100.00;98138.16;4971892;28;20625;-64
2022/04/07 03:26:59;;;;;;;4.00;3.60;;;;;;;8.20;100.00;98125.59;4957676;28;20191;-63
2022/04/07 03:29:26;;;;;;;4.80;3.07;;;;;;;8.33;100.00;98123.69;4952593;28;20274;-65
2022/04/07 03:31:51;;;;;;;3.53;3.23;;;;;;;8.34;100.00;98115.09;4950513;28;20360;-63
2022/04/07 03:34:17;;;;;;;3.90;3.23;;;;;;;8.35;100.00;98116.72;4989195;28;20618;-64
2022/04/07 03:36:42;;;;;;;3.33;3.10;;;;;;;8.22;100.00;98113.47;4977268;28;20184;-64
2022/04/07 03:39:09;;;;;;;3.50;2.90;;;;;;;8.30;100.00;98110.31;4973133;28;20206;-64
2022/04/07 03:41:34;;;;;;;3.53;3.00;;;;;;;8.36;100.00;98109.84;4965557;28;20273;-64
2022/04/07 03:44:03;;;;;;;3.27;2.97;;;;;;;8.35;100.00;98100.56;4991677;28;20627;-65
2022/04/07 03:46:29;;;;;;;3.43;3.13;;;;;;;8.33;100.00;98100.66;4992176;28;20232;-65
2022/04/07 03:48:55;;;;;;;3.60;3.27;;;;;;;8.28;100.00;98101.97;4991156;28;20178;-63
2022/04/07 03:51:20;;;;;;;4.13;3.47;;;;;;;8.30;100.00;98110.31;4973716;28;20756;-62
2022/04/07 03:53:45;;;;;;;3.23;3.03;;;;;;;8.32;100.00;98098.22;4979093;28;20324;-63
2022/04/07 03:56:11;;;;;;;3.23;2.93;;;;;;;8.34;100.00;98096.34;4990731;28;20189;-64
2022/04/07 03:58:37;;;;;;;3.43;3.13;;;;;;;8.37;100.00;98099.50;4992202;28;20190;-63
2022/04/07 04:01:02;;;;;;;3.10;2.90;;;;;;;8.42;100.00;98100.88;4983738;28;20245;-63
2022/04/07 04:03:28;;;;;;;3.00;2.80;;;;;;;8.41;100.00;98097.53;4999033;28;20744;-63
2022/04/07 04:05:53;;;;;;;3.33;3.00;;;;;;;8.40;100.00;98089.00;4992035;28;20178;-63
2022/04/07 04:08:18;;;;;;;3.10;2.90;;;;;;;8.45;100.00;98075.03;4992021;28;20225;-64
2022/04/07 04:10:43;;;;;;;3.43;2.67;;;;;;;8.47;100.00;98083.44;4987491;28;20240;-63
2022/04/07 04:13:09;;;;;;;4.57;3.00;;;;;;;8.52;100.00;98079.59;4990413;28;20183;-64
2022/04/07 04:15:34;;;;;;;6.03;3.30;;;;;;;8.50;100.00;98072.94;4991701;28;20207;-65
2022/04/07 04:17:59;;;;;;;4.30;2.60;;;;;;;8.57;100.00;98053.59;4990420;28;20282;-65
2022/04/07 04:20:25;;;;;;;4.27;2.90;;;;;;;8.53;100.00;98044.50;4984724;28;20709;-62
2022/04/07 04:22:50;;;;;;;6.33;3.00;;;;;;;8.58;100.00;98050.09;5003928;28;20190;-64
2022/04/07 04:25:16;;;;;;;4.07;2.50;;;;;;;8.59;100.00;98051.72;4991708;28;20203;-63
2022/04/07 04:27:42;;;;;;;4.40;2.83;;;;;;;8.58;100.00;98062.09;4995931;28;20180;-63
2022/04/07 04:30:08;;;;;;;2.77;2.20;;;;;;;8.62;100.00;98060.91;4971894;28;20191;-63
2022/04/07 04:32:33;;;;;;;6.03;3.23;;;;;;;8.52;100.00;98069.34;4964718;28;20287;-63
2022/04/07 04:34:58;;;;;;;2.80;2.47;;;;;;;8.43;100.00;98071.78;4995183;28;20270;-62
2022/04/07 04:37:26;;;;;;;2.50;2.30;;;;;;;8.39;100.00;98071.19;4994421;28;20183;-65
2022/04/07 04:39:53;;;;;;;4.70;2.77;;;;;;;8.37;100.00;98073.06;4976481;28;20238;-62
2022/04/07 04:42:18;;;;;;;4.57;2.73;;;;;;;8.27;100.00;98059.34;4949845;28;20710;-61
2022/04/07 04:44:43;;;;;;;2.90;2.60;;;;;;;8.16;100.00;98055.03;4975425;28;20180;-62
2022/04/07 04:47:08;;;;;;;3.40;2.10;;;;;;;8.30;100.00;98053.97;4975949;28;20172;-62
2022/04/07 04:49:34;;;;;;;2.70;2.50;;;;;;;8.27;100.00;98052.47;4974810;28;20592;-63
2022/04/07 04:51:59;;;;;;;3.37;2.37;;;;;;;8.16;100.00;98049.91;4970113;28;20248;-62
2022/04/07 04:54:24;;;;;;;3.20;2.80;;;;;;;8.14;100.00;98037.25;4992629;28;20187;-63
2022/04/07 04:56:50;;;;;;;4.50;2.67;;;;;;;8.21;100.00;98035.84;4993912;28;20213;-64
2022/04/07 04:59:16;;;;;;;2.53;2.33;;;;;;;8.27;100.00;98034.53;4999221;28;20201;-63
2022/04/07 05:01:41;;;;;;;4.03;2.17;;;;;;;8.22;100.00;98011.03;4992319;28;20251;-63
2022/04/07 05:04:06;;;;;;;4.97;2.53;;;;;;;8.21;100.00;98007.66;5007104;28;20253;-62
2022/04/07 05:06:32;;;;;;;4.07;2.87;;;;;;;8.18;100.00;98007.88;5013772;28;20193;-62
2022/04/07 05:08:57;;;;;;;4.03;2.50;;;;;;;8.23;100.00;98010.91;5005470;28;20193;-63
2022/04/07 05:11:22;;;;;;;2.70;2.40;;;;;;;8.39;100.00;98012.28;4982274;28;20243;-63
2022/04/07 05:13:48;;;;;;;4.10;2.10;;;;;;;8.40;100.00;98008.78;5010372;28;20185;-63
2022/04/07 05:16:15;;;;;;;2.60;2.40;;;;;;;8.53;100.00;98001.78;5009090;28;20296;-63
2022/04/07 05:18:46;;;;;;;3.43;2.67;;;;;;;8.55;100.00;97993.97;5014504;28;20205;-63
2022/04/07 05:21:14;;;;;;;3.20;2.20;;;;;;;8.66;100.00;97993.13;4996866;28;20225;-63
2022/04/07 05:23:39;;;;;;;2.07;1.87;;;;;;;8.70;100.00;97995.28;4987252;28;20203;-63
2022/04/07 05:26:04;;;;;;;2.13;1.93;;;;;;;8.72;100.00;97984.94;4994631;28;20245;-64
2022/04/07 05:28:30;;;;;;;2.10;2.00;;;;;;;8.80;100.00;97982.53;5009748;28;20602;-65
2022/04/07 05:30:56;;;;;;;2.10;1.90;;;;;;;8.82;100.00;97972.16;4976385;28;20325;-63
2022/04/07 05:33:21;;;;;;;3.67;1.70;;;;;;;8.88;100.00;97976.78;4994207;28;20245;-61
2022/04/07 05:35:46;;;;;;;3.07;1.60;;;;;;;8.91;100.00;97970.63;4993449;28;20172;-64
2022/04/07 05:38:12;;;;;;;1.60;1.50;;;;;;;8.94;100.00;97957.53;4993431;28;20171;-64
2022/04/07 05:40:37;;;;;;;1.70;1.60;;;;;;;8.98;100.00;97976.84;4984370;28;20234;-64
2022/04/07 05:43:04;;;;;;;2.97;1.90;;;;;;;8.98;100.00;97958.88;4993783;28;20198;-63
2022/04/07 05:45:30;;;;;;;1.57;1.47;;;;;;;9.00;100.00;97959.59;4994714;28;20176;-63
2022/04/07 05:47:55;;;;;;;1.50;1.40;;;;;;;9.03;100.00;97957.59;4989794;28;20179;-63
2022/04/07 05:50:20;;;;;;;1.90;1.40;;;;;;;8.98;100.00;97939.22;4967832;28;20180;-64
2022/04/07 05:52:46;;;;;;;2.90;1.43;;;;;;;9.13;100.00;97926.88;4979452;28;20179;-64
2022/04/07 05:55:11;;;;;;;1.33;1.23;;;;;;;9.03;100.00;97933.72;4993135;28;20186;-63
2022/04/07 05:57:36;;;;;;;1.60;1.10;;;;;;;8.97;100.00;97934.22;4994420;28;20179;-63
2022/04/07 06:00:24;;;;;;;1.33;1.20;;;;;;;8.93;100.00;97925.97;4991327;28;20222;-65
2022/04/07 06:02:50;;;;;;;1.53;1.10;;;;;;;8.96;100.00;97917.19;5006375;28;20225;-63
2022/04/07 06:05:16;;;;;;;1.43;1.10;;;;;;;8.94;100.00;97922.44;4993030;28;20188;-63
2022/04/07 06:07:42;;;;;;;1.60;1.50;;;;;;;8.86;100.00;97905.13;4994178;28;20175;-63
2022/04/07 06:10:08;;;;;;;1.20;1.20;;;;;;;8.81;100.00;97891.09;4984536;28;20211;-64
2022/04/07 06:12:34;;;;;;;1.33;1.23;;;;;;;8.90;100.00;97889.50;4993129;28;20230;-64
2022/04/07 06:14:59;;;;;;;1.50;1.30;;;;;;;8.95;100.00;97895.06;4994252;28;20954;-63
2022/04/07 06:17:36;;;;;;;1.87;1.50;;;;;;;8.99;100.00;97879.28;4992752;28;20179;-63
2022/04/07 06:20:02;;;;;;;2.03;1.80;;;;;;;8.98;100.00;97875.09;4992738;28;20708;-63
2022/04/07 06:22:27;;;;;;;2.37;1.47;;;;;;;9.03;100.00;97874.72;4958087;28;20358;-63
2022/04/07 06:24:53;;;;;;;3.30;1.30;;;;;;;9.18;100.00;97859.81;4982407;28;20627;-64
2022/04/07 06:27:18;;;;;;;3.13;1.23;;;;;;;9.16;100.00;97865.03;4989928;28;20195;-64
2022/04/07 06:29:43;;;;;;;1.70;1.50;;;;;;;9.23;100.00;97872.22;4978698;28;20603;-64
2022/04/07 06:32:09;;;;;;;3.93;1.63;;;;;;;9.31;100.00;97865.47;4978772;28;20690;-64
2022/04/07 06:34:34;;;;;;;3.83;1.90;;;;;;;9.28;100.00;97860.63;4988102;28;20218;-64
2022/04/07 06:37:00;;;;;;;1.40;1.30;;;;;;;9.36;100.00;97857.41;5000186;28;20530;-65
2022/04/07 06:39:25;;;;;;;1.30;1.20;;;;;;;9.40;100.00;97845.94;5010668;28;20561;-64
2022/04/07 06:41:51;;;;;;;2.73;1.30;;;;;;;9.29;100.00;97851.16;4989570;28;20570;-64
2022/04/07 06:44:19;;;;;;;1.50;1.00;;;;;;;9.12;100.00;97844.94;5012208;28;20656;-63
2022/04/07 06:46:44;;;;;;;2.53;1.10;;;;;;;9.07;100.00;97847.03;4997763;28;20190;-63
2022/04/07 06:49:10;;;;;;;3.07;1.20;;;;;;;8.99;100.00;97847.69;4991509;28;20179;-64
2022/04/07 06:51:35;;;;;;;0.90;0.90;;;;;;;9.12;100.00;97837.22;4994875;28;20234;-64
2022/04/07 06:54:00;;;;;;;1.57;1.43;;;;;;;9.04;100.00;97833.56;4979798;28;20183;-64
2022/04/07 06:56:26;;;;;;;2.77;1.03;;;;;;;8.95;100.00;97829.19;4973538;28;20168;-64
2022/04/07 06:58:53;;;;;;;2.93;1.33;;;;;;;8.98;100.00;97825.56;4973454;28;20602;-63
2022/04/07 07:01:18;;;;;;;1.20;0.90;;;;;;;8.99;100.00;97820.31;4963363;28;20231;-63
2022/04/07 07:03:44;;;;;;;1.47;1.30;;;;;;;9.12;100.00;97806.47;4971069;28;20780;-64
2022/04/07 07:06:09;;;;;;;1.07;1.07;;;;;;;9.24;100.00;97794.31;4973108;28;20184;-63
2022/04/07 07:08:34;;;;;;;0.97;0.93;;;;;;;9.31;100.00;97785.94;4972038;28;20180;-63
2022/04/07 07:10:59;;;;;;;1.20;1.10;;;;;;;9.39;100.00;97780.19;4972841;28;20245;-63
2022/04/07 07:13:25;;;;;;;0.93;0.93;;;;;;;9.59;100.00;97780.19;4989274;28;20611;-65
2022/04/07 07:15:50;;;;;;;0.90;0.90;;;;;;;9.68;100.00;97780.19;4975677;28;20245;-64
2022/04/07 07:18:16;;;;;;;0.77;0.70;;;;;;;9.78;100.00;97769.91;4992106;28;20183;-64
2022/04/07 07:20:42;;;;;;;0.93;0.93;;;;;;;9.91;100.00;97766.25;4970256;28;20597;-64
2022/04/07 07:23:07;;;;;;;0.80;0.80;;;;;;;9.94;100.00;97763.44;4981420;28;20266;-64
2022/04/07 07:25:33;;;;;;;0.60;0.60;;;;;;;9.94;100.00;97758.28;4978960;28;20266;-64
2022/04/07 07:27:59;;;;;;;0.70;0.60;;;;;;;9.80;100.00;97764.66;4983515;28;20195;-64
2022/04/07 07:30:25;;;;;;;0.60;0.60;;;;;;;9.77;100.00;97759.78;4975195;28;20240;-65
2022/04/07 07:32:51;;;;;;;0.50;0.50;;;;;;;9.70;100.00;97762.09;4968811;28;20179;-65
2022/04/07 07:35:18;;;;;;;0.50;0.50;;;;;;;9.71;100.00;97753.44;5009544;28;20187;-65
2022/04/07 07:38:01;;;;;;;0.57;0.57;;;;;;;9.78;100.00;97761.41;5007138;28;20187;-64
2022/04/07 07:40:32;;;;;;;0.90;0.73;;;;;;;9.82;100.00;97748.19;4993309;28;20229;-65
2022/04/07 07:43:00;;;;;;;0.83;0.60;;;;;;;9.85;100.00;97750.44;4981006;28;20246;-68
2022/04/07 07:45:27;;;;;;;0.53;0.53;;;;;;;10.02;100.00;97735.28;5010860;28;20183;-66
2022/04/07 07:47:53;;;;;;;0.60;0.60;;;;;;;10.20;100.00;97717.41;4981688;28;20195;-65
2022/04/07 07:50:19;;;;;;;0.60;0.60;;;;;;;10.36;100.00;97721.13;4976497;28;20175;-64
2022/04/07 07:52:45;;;;;;;0.70;0.70;;;;;;;10.32;100.00;97710.34;4994236;28;20222;-64
2022/04/07 07:55:10;;;;;;;1.97;0.70;;;;;;;10.22;100.00;97707.81;5003254;28;20203;-66
2022/04/07 07:57:35;;;;;;;2.47;0.80;;;;;;;10.20;100.00;97714.03;4999706;28;20272;-65
2022/04/07 08:00:01;;;;;;;0.80;0.80;;;;;;;10.17;100.00;97697.13;5011546;28;20202;-66
2022/04/07 08:02:26;;;;;;;0.67;0.67;;;;;;;10.20;100.00;97683.22;5004373;28;20226;-65
2022/04/07 08:04:52;;;;;;;0.70;0.70;;;;;;;10.22;100.00;97683.84;5007316;28;20632;-67
2022/04/07 08:07:18;;;;;;;2.20;0.70;;;;;;;10.15;100.00;97673.34;5012440;28;20186;-67
2022/04/07 08:09:43;;;;;;;0.83;0.47;;;;;;;10.17;100.00;97668.84;5012244;28;20266;-66
2022/04/07 08:12:09;;;;;;;1.20;0.67;;;;;;;10.22;100.00;97660.75;4989295;28;20717;-65
2022/04/07 08:14:35;;;;;;;0.67;0.60;;;;;;;10.38;100.00;97644.75;5014618;28;20221;-64
2022/04/07 08:17:00;;;;;;;0.60;0.60;;;;;;;10.38;100.00;97639.59;5014565;28;20194;-66
2022/04/07 08:19:26;;;;;;;0.63;0.60;;;;;;;10.51;100.00;97644.44;5008715;28;20192;-65
2022/04/07 08:21:51;;;;;;;0.60;0.60;;;;;;;10.53;100.00;97651.03;4983636;28;20234;-64
2022/04/07 08:24:19;;;;;;;0.50;0.50;;;;;;;10.68;100.00;97648.78;4976290;28;20199;-65
2022/04/07 08:26:45;;;;;;;0.40;0.40;;;;;;;10.78;100.00;97641.03;4994451;28;20184;-65
2022/04/07 08:29:11;;;;;;;0.50;0.50;;;;;;;10.82;100.00;97632.84;4984581;28;20229;-68
2022/04/07 08:31:36;;;;;;;0.80;0.60;;;;;;;10.71;100.00;97632.25;4955429;28;20240;-66
2022/04/07 08:34:01;;;;;;;0.60;0.47;;;;;;;10.85;99.48;97634.31;4975099;28;20187;-65
2022/04/07 08:36:27;;;;;;;0.73;0.57;;;;;;;10.79;100.00;97633.16;4976607;28;20261;-66
2022/04/07 08:38:52;;;;;;;0.40;0.40;;;;;;;10.77;100.00;97618.81;4974979;28;20589;-67
2022/04/07 08:41:18;;;;;;;2.70;0.50;;;;;;;10.88;99.78;97630.63;4991565;28;20223;-68
2022/04/07 08:43:43;;;;;;;0.75;0.60;;;;;;;10.98;98.38;97627.06;4995893;28;20439;-66
2022/04/07 08:46:11;;;;;;;0.60;0.60;;;;;;;11.12;96.55;97620.56;5009961;28;20649;-67
2022/04/07 08:48:40;;;;;;;0.80;0.70;;;;;;;11.10;95.46;97609.63;5009921;28;20179;-66
2022/04/07 08:51:06;;;;;;;0.50;0.50;;;;;;;11.21;96.11;97595.75;4996211;28;20241;-68
2022/04/07 08:53:32;;;;;;;1.27;0.67;;;;;;;11.54;94.03;97590.81;5007994;28;20189;-66
2022/04/07 08:56:00;;;;;;;0.50;0.50;;;;;;;11.67;93.61;97589.59;5008652;28;20209;-65
2022/04/07 08:58:25;;;;;;;1.03;0.60;;;;;;;11.65;91.30;97568.31;5013391;28;20178;-67
2022/04/07 09:00:51;;;;;;;0.40;0.40;;;;;;;11.77;90.14;97578.22;5004078;28;20242;-67
2022/04/07 09:03:16;;;;;;;0.67;0.67;;;;;;;11.87;90.28;97560.09;5013104;28;20223;-67
2022/04/07 09:05:59;;;;;;;0.43;0.43;;;;;;;11.80;89.51;97541.06;5014899;28;20179;-66
2022/04/07 09:08:36;;;;;;;0.60;0.60;;;;;;;11.84;89.05;97550.06;5013308;28;20190;-67
2022/04/07 09:11:03;;;;;;;2.00;0.60;;;;;;;11.97;89.78;97551.44;4997806;28;20238;-67
2022/04/07 09:13:39;;;;;;;0.60;0.60;;;;;;;12.05;89.69;97557.44;5004575;28;20185;-66
2022/04/07 09:16:07;;;;;;;0.50;0.50;;;;;;;12.05;88.77;97560.00;5012639;28;20651;-66
2022/04/07 09:18:34;;;;;;;0.50;0.40;;;;;;;12.08;87.83;97557.13;4997708;28;20180;-66
2022/04/07 09:20:59;;;;;;;0.97;0.70;;;;;;;12.13;87.67;97548.13;4985241;28;20237;-65
2022/04/07 09:23:25;;;;;;;0.40;0.40;;;;;;;12.33;87.36;97536.59;4992831;28;20199;-66
2022/04/07 09:25:50;;;;;;;1.60;0.53;;;;;;;12.23;86.53;97541.06;4990975;28;20226;-65
2022/04/07 09:28:26;;;;;;;0.60;0.43;;;;;;;12.18;87.85;97535.56;5001384;28;20187;-66
2022/04/07 09:30:51;;;;;;;0.40;0.40;;;;;;;11.95;89.38;97536.91;5003694;28;20244;-66
2022/04/07 09:33:26;;;;;;;0.97;0.40;;;;;;;12.15;90.21;97528.97;5002851;28;20186;-67
2022/04/07 09:36:03;;;;;;;0.53;0.53;;;;;;;12.24;88.37;97535.75;5013182;28;20535;-66
2022/04/07 09:38:32;;;;;;;0.50;0.50;;;;;;;12.29;88.15;97530.13;5006127;28;20187;-65
2022/04/07 09:41:04;;;;;;;1.27;0.50;;;;;;;12.38;88.53;97530.97;4986563;28;20233;-65
2022/04/07 09:43:51;;;;;;;0.60;0.60;;;;;;;12.30;87.22;97512.91;4993337;28;20281;-65
2022/04/07 09:46:21;;;;;;;0.60;0.60;;;;;;;12.16;88.03;97512.53;5012741;28;20210;-66
2022/04/07 09:49:09;;;;;;;0.80;0.60;;;;;;;12.30;88.09;97505.97;5012191;28;20422;-66
2022/04/07 09:51:46;;;;;;;1.40;0.70;;;;;;;12.27;88.76;97508.88;5001529;28;20678;-65
2022/04/07 09:54:13;;;;;;;0.30;0.30;;;;;;;12.33;89.91;97490.19;4992689;28;20183;-67
2022/04/07 09:56:39;;;;;;;1.63;0.50;;;;;;;12.50;88.63;97492.78;4992746;28;20541;-66
2022/04/07 09:59:06;;;;;;;0.40;0.40;;;;;;;12.73;88.38;97473.13;4983357;28;20441;-66
2022/04/07 10:01:32;;;;;;;1.30;0.50;;;;;;;12.79;88.51;97482.00;4986801;28;20275;-65
2022/04/07 10:03:58;;;;;;;0.60;0.60;;;;;;;13.15;86.18;97465.34;5012942;28;20556;-65
2022/04/07 10:06:24;;;;;;;0.60;0.60;;;;;;;14.18;80.90;97451.50;5011821;28;20280;-63
2022/04/07 10:08:50;;;;;;;0.40;0.40;;;;;;;14.24;78.16;97447.44;5012191;28;20190;-63
2022/04/07 10:11:19;;;;;;;0.40;0.40;;;;;;;14.66;76.60;97429.84;5002793;28;20234;-65
2022/04/07 10:13:46;;;;;;;0.40;0.40;;;;;;;15.09;73.83;97424.09;5012328;28;20175;-64
2022/04/07 10:16:14;;;;;;;0.93;0.50;;;;;;;15.00;73.06;97416.41;4995814;28;20184;-65
2022/04/07 10:19:01;;;;;;;0.40;0.40;;;;;;;15.17;71.57;97422.22;4985517;28;20194;-64
2022/04/07 10:21:49;;;;;;;0.50;0.40;;;;;;;15.56;70.22;97427.28;4971801;28;20230;-66
2022/04/07 10:24:38;;;;;;;4.17;0.50;;;;;;;15.28;70.67;97420.97;4980184;28;20726;-65
2022/04/07 10:27:09;;;;;;;0.30;0.30;;;;;;;14.90;71.96;97405.53;5003283;28;20206;-64
2022/04/07 10:29:37;;;;;;;0.40;0.40;;;;;;;15.11;72.55;97435.88;5013512;28;20167;-72
2022/04/07 10:32:12;;;;;;;0.20;0.20;;;;;;;14.27;74.17;97402.34;4968048;28;20281;-68
2022/04/07 10:34:42;;;;;;;1.50;0.20;;;;;;;14.28;75.24;97404.75;4973193;28;20234;-69
2022/04/07 10:37:08;;;;;;;0.30;0.30;;;;;;;14.34;75.70;97396.28;4993733;28;20176;-70
2022/04/07 10:39:34;;;;;;;0.50;0.50;;;;;;;14.42;74.85;97395.41;4973381;28;20203;-65
2022/04/07 10:42:00;;;;;;;0.50;0.50;;;;;;;14.55;74.63;97386.25;4962091;28;20220;-68
2022/04/07 10:44:27;;;;;;;1.23;0.40;;;;;;;14.41;74.99;97362.78;4971650;28;20176;-71
2022/04/07 10:47:09;;;;;;;0.30;0.30;;;;;;;14.38;74.69;97362.34;4974519;28;20255;-70
2022/04/07 10:49:35;;;;;;;0.60;0.40;;;;;;;14.16;75.32;97347.47;4975940;28;20659;-70
2022/04/07 10:52:06;;;;;;;0.20;0.20;;;;;;;14.35;75.98;97343.59;4966599;28;20344;-68
2022/04/07 10:54:32;;;;;;;0.30;0.30;;;;;;;15.05;75.31;97352.97;4976295;28;20647;-72
2022/04/07 10:57:00;;;;;;;0.30;0.30;;;;;;;15.11;71.88;97344.47;4972438;28;20371;-69
2022/04/07 10:59:27;;;;;;;0.40;0.40;;;;;;;15.21;73.29;97334.63;4981241;28;20219;-70
2022/04/07 11:02:12;;;;;;;0.50;0.50;;;;;;;15.28;72.93;97329.53;4942029;28;20255;-71
2022/04/07 11:05:00;;;;;;;1.57;0.47;;;;;;;15.46;72.65;97336.91;4987323;28;20227;-70
2022/04/07 11:07:26;;;;;;;1.23;0.50;;;;;;;15.14;71.88;97329.38;4989050;28;20282;-66
2022/04/07 11:09:57;;;;;;;0.20;0.20;;;;;;;14.98;74.27;97335.56;4975259;28;20258;-64
2022/04/07 11:12:31;;;;;;;0.47;0.47;;;;;;;15.07;71.35;97315.56;4963466;28;20838;-62
2022/04/07 11:15:03;;;;;;;0.40;0.40;;;;;;;15.33;70.96;97314.22;4973347;28;20411;-66
2022/04/07 11:17:36;;;;;;;0.30;0.30;;;;;;;15.71;69.22;97306.25;4968268;28;20226;-67
2022/04/07 11:20:15;;;;;;;0.63;0.30;;;;;;;15.33;70.63;97302.09;4971629;28;20234;-69
2022/04/07 11:22:56;;;;;;;0.30;0.30;;;;;;;15.01;71.63;97309.31;4976620;28;20232;-68
2022/04/07 11:25:30;;;;;;;0.23;0.23;;;;;;;15.01;73.15;97296.34;4972664;28;20298;-67
2022/04/07 11:28:02;;;;;;;0.67;0.30;;;;;;;14.62;73.40;97301.78;4970941;28;20191;-67
2022/04/07 11:30:42;;;;;;;0.30;0.30;;;;;;;14.56;75.57;97298.13;4939674;28;20241;-67
2022/04/07 11:36:04;;;;;;;1.23;0.63;;;;;;;14.59;81.86;97281.47;4992255;28;20191;-67
2022/04/07 11:38:52;;;;;;;0.33;0.30;;;;;;;14.50;81.14;97285.94;4992256;28;20171;-67